KBKW/BKW METAR and TAF weather

Enter ICAO airport designator
Station Type Date Time Source
KBKW METAR 2021/07/30 07:51 UTC NOAA

KBKW 300751Z AUTO 00000KT 10SM FEW070 21/20 A3001 RMK AO2 SLP122 T02110200 TSNO


Station Type Date Time Source
KBKW Decoded METAR 2021/07/30 07:51 UTC NOAA

RALEIGH COUNTY MEM AIRPORT , WV, United States (KBKW) 37-48N 081-07W 764M
Jul 30, 2021 - 03:51 AM EDT / 2021.07.30 0751 UTC
Wind: Calm:0
Visibility: 10 mile(s):0
Sky conditions: mostly clear
Temperature: 70.0 F (21.1 C)
Dew Point: 68.0 F (20.0 C)
Relative Humidity: 93%
Pressure (altimeter): 30.01 in. Hg (1016 hPa)
ob: KBKW 300751Z AUTO 00000KT 10SM FEW070 21/20 A3001 RMK AO2 SLP122 T02110200 TSNO
cycle: 8

Station Type Date Time Source
KBKW TAF 2021/07/30 06:42 UTC NOAA

TAF KBKW 300540Z 3006/3106 26005KT P6SM OVC070
FM301100 28005KT 5SM BR BKN015
FM301400 31007KT P6SM BKN015
FM301800 33009G15KT P6SM SCT050

Example: see airport list